createdAt,value
2022-11-27T00:02:19.336Z,35.58
2022-11-27T00:04:51.506Z,44.30
2022-11-27T00:07:23.690Z,44.78
2022-11-27T00:09:55.687Z,31.83
2022-11-27T00:12:27.707Z,36.10
2022-11-27T00:14:59.834Z,31.08
2022-11-27T00:17:31.898Z,32.53
2022-11-27T00:20:04.981Z,31.33
2022-11-27T00:22:37.003Z,33.33
2022-11-27T00:25:09.260Z,28.75
2022-11-27T00:27:41.287Z,40.78
2022-11-27T00:30:14.155Z,28.77
2022-11-27T00:32:46.207Z,28.38
2022-11-27T00:35:18.500Z,21.58
2022-11-27T00:37:50.580Z,23.17
2022-11-27T00:40:22.564Z,25.50
2022-11-27T00:42:54.590Z,31.02
2022-11-27T00:45:26.659Z,22.45
2022-11-27T00:47:58.627Z,31.98
2022-11-27T00:50:32.209Z,23.75
2022-11-27T00:53:04.253Z,23.92
2022-11-27T00:55:36.221Z,25.08
2022-11-27T00:58:08.342Z,30.00
2022-11-27T01:00:40.548Z,28.30
2022-11-27T01:03:12.577Z,25.15
2022-11-27T01:05:44.905Z,26.63
2022-11-27T01:08:17.684Z,26.58
2022-11-27T01:10:56.167Z,28.75
2022-11-27T01:13:33.096Z,25.10
2022-11-27T01:16:12.794Z,16.48
2022-11-27T01:18:46.963Z,30.70
2022-11-27T01:21:21.845Z,23.30
2022-11-27T01:23:55.137Z,22.80
2022-11-27T01:26:27.961Z,26.05
2022-11-27T01:29:00.324Z,25.92
2022-11-27T01:31:34.587Z,27.05
2022-11-27T01:34:16.952Z,29.77
2022-11-27T01:36:49.070Z,24.13
2022-11-27T01:39:24.499Z,27.95
2022-11-27T01:41:56.665Z,23.63
2022-11-27T01:44:28.510Z,24.98
2022-11-27T01:47:15.055Z,25.10
2022-11-27T01:49:52.905Z,22.90
2022-11-27T01:52:31.470Z,30.95
2022-11-27T01:55:19.076Z,28.15
2022-11-27T01:57:59.157Z,24.35
2022-11-27T02:00:31.142Z,30.98
2022-11-27T02:03:03.214Z,21.10
2022-11-27T02:05:35.572Z,30.65
2022-11-27T02:08:15.734Z,22.45
2022-11-27T02:11:18.084Z,22.80
2022-11-27T02:14:23.942Z,23.95
2022-11-27T02:17:12.613Z,33.20
2022-11-27T02:19:56.528Z,22.50
2022-11-27T02:23:11.568Z,22.65
2022-11-27T02:26:32.008Z,31.83
2022-11-27T02:32:11.238Z,31.20
2022-11-27T02:34:46.111Z,26.33
2022-11-27T02:37:53.875Z,28.15
2022-11-27T02:40:42.783Z,41.60
2022-11-27T02:43:37.282Z,27.80
2022-11-27T02:46:11.046Z,26.25
2022-11-27T02:49:02.447Z,30.77
2022-11-27T02:51:43.565Z,40.42
2022-11-27T02:54:22.550Z,29.40
2022-11-27T02:56:57.592Z,39.90
2022-11-27T02:59:31.784Z,28.55
2022-11-27T03:02:14.338Z,42.00
2022-11-27T03:04:53.032Z,30.27
2022-11-27T03:08:01.983Z,29.92
2022-11-27T03:11:14.482Z,28.05
2022-11-27T03:13:52.417Z,35.05
2022-11-27T03:16:50.430Z,31.42
2022-11-27T03:19:33.991Z,36.80
2022-11-27T03:22:06.642Z,38.22
2022-11-27T03:24:39.687Z,30.05
2022-11-27T03:27:17.357Z,37.10
2022-11-27T03:29:57.430Z,41.92
2022-11-27T03:32:31.292Z,36.13
2022-11-27T03:35:06.115Z,37.58
2022-11-27T03:37:38.182Z,35.95
2022-11-27T03:40:11.267Z,34.88
2022-11-27T03:43:17.119Z,41.00
2022-11-27T03:45:57.691Z,39.60
2022-11-27T03:49:05.139Z,35.00
2022-11-27T03:52:06.483Z,44.08
2022-11-27T03:55:03.498Z,45.95
2022-11-27T03:57:43.184Z,44.20
2022-11-27T04:00:15.774Z,36.97
2022-11-27T04:02:52.399Z,39.78
2022-11-27T04:05:24.538Z,42.90
2022-11-27T04:07:56.734Z,33.63
2022-11-27T04:10:28.815Z,38.80
2022-11-27T04:13:00.771Z,34.92
2022-11-27T04:15:32.900Z,39.20
2022-11-27T04:18:05.143Z,41.50
2022-11-27T04:20:37.402Z,41.10
2022-11-27T04:23:10.315Z,37.67
2022-11-27T04:25:42.399Z,38.90
2022-11-27T04:28:14.680Z,36.58
2022-11-27T04:30:52.707Z,34.22
2022-11-27T04:33:25.149Z,41.13
2022-11-27T04:35:57.266Z,37.08
2022-11-27T04:38:29.591Z,40.75
2022-11-27T04:41:01.698Z,38.92
2022-11-27T04:43:33.839Z,37.65
2022-11-27T04:46:06.160Z,38.30
2022-11-27T04:48:38.285Z,38.60
2022-11-27T04:51:10.261Z,42.60
2022-11-27T04:53:42.391Z,41.55
2022-11-27T04:56:14.505Z,44.83
2022-11-27T04:58:46.475Z,39.33
2022-11-27T05:01:18.957Z,36.80
2022-11-27T05:03:51.268Z,46.55
2022-11-27T05:06:23.241Z,38.22
2022-11-27T05:09:02.160Z,38.30
2022-11-27T05:11:34.923Z,42.03
2022-11-27T05:14:16.772Z,39.78
2022-11-27T05:16:52.735Z,41.75
2022-11-27T05:19:28.878Z,41.35
2022-11-27T05:22:00.867Z,31.25
2022-11-27T05:24:33.308Z,36.50
2022-11-27T05:27:05.470Z,38.63
2022-11-27T05:29:39.575Z,35.38
2022-11-27T05:32:11.579Z,36.88
2022-11-27T05:34:43.651Z,31.85
2022-11-27T05:37:19.450Z,36.95
2022-11-27T05:39:52.124Z,35.55
2022-11-27T05:42:24.310Z,37.53
2022-11-27T05:44:58.483Z,36.00
2022-11-27T05:47:30.690Z,35.30
2022-11-27T05:50:02.764Z,39.40
2022-11-27T05:52:35.306Z,32.92
2022-11-27T05:55:08.030Z,32.95
2022-11-27T05:57:40.115Z,34.53
2022-11-27T06:00:13.123Z,34.97
2022-11-27T06:02:45.178Z,41.08
2022-11-27T06:05:17.300Z,34.20
2022-11-27T06:07:49.334Z,34.17
2022-11-27T06:10:22.685Z,42.67
2022-11-27T06:12:55.615Z,31.63
2022-11-27T06:15:28.851Z,32.58
2022-11-27T06:18:00.823Z,33.42
2022-11-27T06:20:33.486Z,38.05
2022-11-27T06:23:05.453Z,34.70
2022-11-27T06:25:37.446Z,36.75
2022-11-27T06:28:09.707Z,35.08
2022-11-27T06:30:41.742Z,41.28
2022-11-27T06:33:13.885Z,32.08
2022-11-27T06:35:45.821Z,33.50
2022-11-27T06:38:17.874Z,36.35
2022-11-27T06:40:49.866Z,34.50
2022-11-27T06:43:21.950Z,38.97
2022-11-27T06:45:58.553Z,31.13
2022-11-27T06:48:31.018Z,31.40
2022-11-27T06:51:06.178Z,34.00
2022-11-27T06:53:39.114Z,34.88
2022-11-27T06:56:15.557Z,32.85
2022-11-27T06:58:51.583Z,34.15
2022-11-27T07:01:26.384Z,39.63
2022-11-27T07:03:59.144Z,32.15
2022-11-27T07:06:31.368Z,35.55
2022-11-27T07:09:04.109Z,31.33
2022-11-27T07:11:36.984Z,36.75
2022-11-27T07:14:10.183Z,37.63
2022-11-27T07:16:42.317Z,33.03
2022-11-27T07:19:14.857Z,33.28
2022-11-27T07:21:46.828Z,31.13
2022-11-27T07:24:18.901Z,40.25
2022-11-27T07:26:51.048Z,36.95
2022-11-27T07:29:23.355Z,33.80
2022-11-27T07:31:55.583Z,31.48
2022-11-27T07:34:27.564Z,33.63
2022-11-27T07:36:59.594Z,30.00
2022-11-27T07:40:00.233Z,33.78
2022-11-27T07:42:37.344Z,35.13
2022-11-27T07:45:11.947Z,32.85
2022-11-27T07:47:43.930Z,32.90
2022-11-27T07:50:16.030Z,32.92
2022-11-27T07:52:48.186Z,28.70
2022-11-27T07:55:20.285Z,32.17
2022-11-27T07:57:52.289Z,35.85
2022-11-27T08:00:25.090Z,27.95
2022-11-27T08:02:57.181Z,32.80
2022-11-27T08:05:29.480Z,31.08
2022-11-27T08:08:04.546Z,32.28
2022-11-27T08:10:38.475Z,40.90
2022-11-27T08:13:10.776Z,33.42
2022-11-27T08:15:43.050Z,34.67
2022-11-27T08:18:15.082Z,37.55
2022-11-27T08:20:47.040Z,33.20
2022-11-27T08:23:19.022Z,39.65
2022-11-27T08:25:50.980Z,35.55
2022-11-27T08:28:23.056Z,36.67
2022-11-27T08:31:00.665Z,31.73
2022-11-27T08:33:33.217Z,78.50
2022-11-27T08:36:08.514Z,54.22
2022-11-27T08:38:41.897Z,53.13
2022-11-27T08:41:14.520Z,52.80
2022-11-27T08:43:46.646Z,64.00
2022-11-27T08:46:18.745Z,40.58
2022-11-27T08:48:50.802Z,47.83
2022-11-27T08:51:22.802Z,33.05
2022-11-27T08:53:55.132Z,32.75
2022-11-27T08:56:27.545Z,45.72
2022-11-27T08:58:59.504Z,47.40
2022-11-27T09:01:33.265Z,40.13
2022-11-27T09:04:05.617Z,35.78
2022-11-27T09:06:37.791Z,46.58
2022-11-27T09:09:10.451Z,52.53
2022-11-27T09:11:43.161Z,32.80
2022-11-27T09:14:15.396Z,38.28
2022-11-27T09:16:50.379Z,33.30
2022-11-27T09:19:22.424Z,34.17
2022-11-27T09:21:54.421Z,27.40
2022-11-27T09:24:29.215Z,38.80
2022-11-27T09:27:01.302Z,26.63
2022-11-27T09:29:35.324Z,34.17
2022-11-27T09:32:07.532Z,31.55
2022-11-27T09:34:39.935Z,33.15
2022-11-27T09:37:12.114Z,30.50
2022-11-27T09:39:44.086Z,33.03
2022-11-27T09:42:40.426Z,28.23
2022-11-27T09:45:16.289Z,24.80
2022-11-27T09:48:06.949Z,32.25
2022-11-27T09:50:50.582Z,28.23
2022-11-27T09:53:34.276Z,29.90
2022-11-27T09:56:11.361Z,29.60
2022-11-27T09:58:50.148Z,27.83
2022-11-27T10:01:34.899Z,27.75
2022-11-27T10:04:14.712Z,31.60
2022-11-27T10:07:02.010Z,31.60
2022-11-27T10:09:37.552Z,25.85
2022-11-27T10:12:27.167Z,24.27
2022-11-27T10:15:07.475Z,25.35
2022-11-27T10:20:51.499Z,25.80
2022-11-27T10:23:53.738Z,24.88
2022-11-27T10:26:38.146Z,25.08
2022-11-27T10:29:32.334Z,23.60
2022-11-27T10:32:46.740Z,26.08
2022-11-27T10:35:20.061Z,32.78
2022-11-27T10:38:16.180Z,28.42
2022-11-27T10:41:28.335Z,30.33
2022-11-27T10:44:57.847Z,24.00
2022-11-27T10:47:33.638Z,28.42
2022-11-27T10:50:20.477Z,23.40
2022-11-27T10:52:59.757Z,26.90
2022-11-27T10:56:02.390Z,24.85
2022-11-27T10:59:07.244Z,29.00
2022-11-27T11:01:53.493Z,26.77
2022-11-27T11:04:39.956Z,28.35
2022-11-27T11:07:29.704Z,24.40
2022-11-27T11:10:02.148Z,22.80
2022-11-27T11:12:34.382Z,32.55
2022-11-27T11:15:11.848Z,28.90
2022-11-27T11:17:43.952Z,23.83
2022-11-27T11:20:24.860Z,22.00
2022-11-27T11:22:57.274Z,29.73
2022-11-27T11:25:29.493Z,28.02
2022-11-27T11:28:01.499Z,23.27
2022-11-27T11:30:34.850Z,20.92
2022-11-27T11:33:12.647Z,23.50
2022-11-27T11:35:54.728Z,19.10
2022-11-27T11:38:33.113Z,23.67
2022-11-27T11:41:07.436Z,22.05
2022-11-27T11:43:39.972Z,26.00
2022-11-27T11:46:25.361Z,22.60
2022-11-27T11:49:18.408Z,25.08
2022-11-27T11:52:14.012Z,24.30
2022-11-27T11:54:59.593Z,27.85
2022-11-27T11:57:39.781Z,26.63
2022-11-27T12:00:29.614Z,19.45
2022-11-27T12:03:28.344Z,22.58
2022-11-27T12:06:47.561Z,22.60
2022-11-27T12:09:45.208Z,26.02
2022-11-27T12:12:23.311Z,24.10
2022-11-27T12:15:45.147Z,24.70
2022-11-27T12:18:35.493Z,24.27
2022-11-27T12:21:38.151Z,24.45
2022-11-27T12:24:33.924Z,20.45
2022-11-27T12:27:33.097Z,26.48
2022-11-27T12:30:26.616Z,26.38
2022-11-27T12:33:07.578Z,19.83
2022-11-27T12:36:20.316Z,21.02
2022-11-27T12:39:10.039Z,19.33
2022-11-27T12:42:23.264Z,21.90
2022-11-27T12:45:22.009Z,22.08
2022-11-27T12:48:03.519Z,19.95
2022-11-27T12:50:48.444Z,25.63
2022-11-27T12:53:39.775Z,27.95
2022-11-27T12:56:31.407Z,18.42
2022-11-27T12:59:15.246Z,25.40
2022-11-27T13:02:09.248Z,21.67
2022-11-27T13:04:52.313Z,24.70
2022-11-27T13:07:53.152Z,20.80
2022-11-27T13:10:47.256Z,24.15
2022-11-27T13:13:59.922Z,24.48
2022-11-27T13:16:41.476Z,26.65
2022-11-27T13:19:32.167Z,22.42
2022-11-27T13:22:16.107Z,25.50
2022-11-27T13:24:48.223Z,25.30
2022-11-27T13:27:26.310Z,22.15
2022-11-27T13:30:26.742Z,23.27
2022-11-27T13:35:43.386Z,23.17
2022-11-27T13:38:24.709Z,16.77
2022-11-27T13:40:57.705Z,33.70
2022-11-27T13:43:44.264Z,30.83
2022-11-27T13:46:29.830Z,25.40
2022-11-27T13:49:05.439Z,21.45
2022-11-27T13:51:39.711Z,19.95
2022-11-27T13:54:17.121Z,28.88
2022-11-27T13:56:49.707Z,16.73
2022-11-27T13:59:24.652Z,21.83
2022-11-27T14:02:05.617Z,27.23
2022-11-27T14:04:55.667Z,21.50
2022-11-27T14:07:45.335Z,22.63
2022-11-27T14:10:25.878Z,19.98
2022-11-27T14:13:09.756Z,26.15
2022-11-27T14:15:41.958Z,21.95
2022-11-27T14:18:20.022Z,20.65
2022-11-27T14:21:01.867Z,19.55
2022-11-27T14:23:49.436Z,21.83
2022-11-27T14:26:25.111Z,21.13
2022-11-27T14:28:59.849Z,18.73
2022-11-27T14:31:35.808Z,21.55
2022-11-27T14:34:32.453Z,24.73
2022-11-27T14:37:04.555Z,21.33
2022-11-27T14:39:38.024Z,21.90
2022-11-27T14:42:27.941Z,23.65
2022-11-27T14:45:15.873Z,27.80
2022-11-27T14:47:54.149Z,28.13
2022-11-27T14:50:26.492Z,20.50
2022-11-27T14:52:58.837Z,19.73
2022-11-27T14:55:34.862Z,21.90
2022-11-27T14:58:15.468Z,20.48
2022-11-27T15:01:24.112Z,22.90
2022-11-27T15:04:02.616Z,23.58
2022-11-27T15:06:44.229Z,22.98
2022-11-27T15:09:32.622Z,20.20
2022-11-27T15:12:17.885Z,23.73
2022-11-27T15:15:06.281Z,23.58
2022-11-27T15:17:40.097Z,20.40
2022-11-27T15:20:23.679Z,24.05
2022-11-27T15:22:58.156Z,17.27
2022-11-27T15:25:42.634Z,19.92
2022-11-27T15:28:33.934Z,19.48
2022-11-27T15:31:33.660Z,25.83
2022-11-27T15:34:17.617Z,24.88
2022-11-27T15:37:01.563Z,19.23
2022-11-27T15:39:39.081Z,19.95
2022-11-27T15:42:11.767Z,23.52
2022-11-27T15:44:43.974Z,26.50
2022-11-27T15:47:34.074Z,27.88
2022-11-27T15:50:07.608Z,26.90
2022-11-27T15:52:39.596Z,26.08
2022-11-27T15:55:16.019Z,23.98
2022-11-27T15:57:48.116Z,24.13
2022-11-27T16:00:22.253Z,24.95
2022-11-27T16:02:54.686Z,22.98
2022-11-27T16:05:26.793Z,21.42
2022-11-27T16:08:01.800Z,28.63
2022-11-27T16:10:33.870Z,20.98
2022-11-27T16:13:05.812Z,19.35
2022-11-27T16:15:38.447Z,25.08
2022-11-27T16:18:11.912Z,23.52
2022-11-27T16:20:43.974Z,27.35
2022-11-27T16:23:15.931Z,21.40
2022-11-27T16:25:48.113Z,19.67
2022-11-27T16:28:20.177Z,25.60
2022-11-27T16:30:58.291Z,27.67
2022-11-27T16:33:31.902Z,31.13
2022-11-27T16:36:13.541Z,27.65
2022-11-27T16:38:46.742Z,23.73
2022-11-27T16:41:19.864Z,20.63
2022-11-27T16:43:55.281Z,23.70
2022-11-27T16:46:31.102Z,27.60
2022-11-27T16:49:06.448Z,29.52
2022-11-27T16:51:40.161Z,24.05
2022-11-27T16:54:14.099Z,25.05
2022-11-27T16:56:46.399Z,29.63
2022-11-27T16:59:18.360Z,28.27
2022-11-27T17:01:50.607Z,26.83
2022-11-27T17:04:22.802Z,25.75
2022-11-27T17:06:54.987Z,35.42
2022-11-27T17:09:29.504Z,24.17
2022-11-27T17:12:02.018Z,18.25
2022-11-27T17:14:34.058Z,22.15
2022-11-27T17:17:06.731Z,18.95
2022-11-27T17:19:39.027Z,22.13
2022-11-27T17:22:11.356Z,21.55
2022-11-27T17:24:43.401Z,26.65
2022-11-27T17:27:15.382Z,24.25
2022-11-27T17:29:47.451Z,30.60
2022-11-27T17:32:19.508Z,22.98
2022-11-27T17:34:51.535Z,21.45
2022-11-27T17:37:23.780Z,21.58
2022-11-27T17:39:55.862Z,24.83
2022-11-27T17:42:27.889Z,23.08
2022-11-27T17:45:00.005Z,21.88
2022-11-27T17:47:34.219Z,21.95
2022-11-27T17:50:07.875Z,23.25
2022-11-27T17:52:40.016Z,25.35
2022-11-27T17:55:12.100Z,23.67
2022-11-27T17:57:44.125Z,29.45
2022-11-27T18:00:18.739Z,20.67
2022-11-27T18:02:50.868Z,19.48
2022-11-27T18:05:22.822Z,24.77
2022-11-27T18:07:55.038Z,19.77
2022-11-27T18:10:27.234Z,26.73
2022-11-27T18:12:59.358Z,21.70
2022-11-27T18:15:31.496Z,21.95
2022-11-27T18:18:03.796Z,18.65
2022-11-27T18:20:36.514Z,16.58
2022-11-27T18:23:08.590Z,16.52
2022-11-27T18:25:47.593Z,18.98
2022-11-27T18:30:54.256Z,14.40
2022-11-27T18:33:26.540Z,18.50
2022-11-27T18:35:58.555Z,22.45
2022-11-27T18:38:36.395Z,21.92
2022-11-27T18:41:21.893Z,22.38
2022-11-27T18:43:54.340Z,25.27
2022-11-27T18:46:26.497Z,19.80
2022-11-27T18:48:59.177Z,24.98
2022-11-27T18:51:31.232Z,20.27
2022-11-27T18:54:03.320Z,19.35
2022-11-27T18:56:37.201Z,22.25
2022-11-27T18:59:09.421Z,15.00
2022-11-27T19:01:42.724Z,19.85
2022-11-27T19:04:18.055Z,21.33
2022-11-27T19:06:50.098Z,20.42
2022-11-27T19:09:22.221Z,15.73
2022-11-27T19:11:54.244Z,18.27
2022-11-27T19:14:26.320Z,18.63
2022-11-27T19:16:58.762Z,20.65
2022-11-27T19:22:25.477Z,19.15
2022-11-27T19:24:57.445Z,21.88
2022-11-27T19:27:29.488Z,16.55
2022-11-27T19:30:01.699Z,21.60
2022-11-27T19:32:33.731Z,20.63
2022-11-27T19:35:10.401Z,21.15
2022-11-27T19:37:42.374Z,16.70
2022-11-27T19:40:15.023Z,18.88
2022-11-27T19:42:47.217Z,17.42
2022-11-27T19:45:20.967Z,20.38
2022-11-27T19:47:53.203Z,15.30
2022-11-27T19:50:25.498Z,12.57
2022-11-27T19:52:59.512Z,18.40
2022-11-27T19:55:32.250Z,14.13
2022-11-27T19:58:04.617Z,15.73
2022-11-27T20:00:37.371Z,14.55
2022-11-27T20:03:09.375Z,17.50
2022-11-27T20:05:41.443Z,17.73
2022-11-27T20:08:13.484Z,20.05
2022-11-27T20:10:51.024Z,11.10
2022-11-27T20:13:23.200Z,17.70
2022-11-27T20:15:55.771Z,18.95
2022-11-27T20:18:28.310Z,15.55
2022-11-27T20:21:12.901Z,18.58
2022-11-27T20:23:46.966Z,16.83
2022-11-27T20:26:23.625Z,20.63
2022-11-27T20:28:56.683Z,12.15
2022-11-27T20:31:33.152Z,12.82
2022-11-27T20:34:07.324Z,13.20
2022-11-27T20:36:40.664Z,19.73
2022-11-27T20:39:17.687Z,13.90
2022-11-27T20:41:53.536Z,15.27
2022-11-27T20:44:27.736Z,22.88
2022-11-27T20:47:00.199Z,19.33
2022-11-27T20:49:33.992Z,17.08
2022-11-27T20:52:06.456Z,20.73
2022-11-27T20:54:38.837Z,20.00
2022-11-27T20:57:14.249Z,15.63
2022-11-27T20:59:46.272Z,13.02
2022-11-27T21:02:18.744Z,12.63
2022-11-27T21:04:50.739Z,17.42
2022-11-27T21:07:22.823Z,16.33
2022-11-27T21:09:57.714Z,14.65
2022-11-27T21:12:31.772Z,22.48
2022-11-27T21:15:05.508Z,17.92
2022-11-27T21:17:37.646Z,17.52
2022-11-27T21:20:10.232Z,13.77
2022-11-27T21:22:44.134Z,16.60
2022-11-27T21:25:16.387Z,21.02
2022-11-27T21:27:48.378Z,16.27
2022-11-27T21:30:20.505Z,14.38
2022-11-27T21:32:52.536Z,12.60
2022-11-27T21:35:30.080Z,18.85
2022-11-27T21:38:03.766Z,14.93
2022-11-27T21:40:37.428Z,14.02
2022-11-27T21:43:09.396Z,14.25
2022-11-27T21:45:41.377Z,15.85
2022-11-27T21:48:14.506Z,19.70
2022-11-27T21:50:47.069Z,13.82
2022-11-27T21:53:19.057Z,27.88
2022-11-27T21:55:51.250Z,18.73
2022-11-27T21:58:26.082Z,12.45
2022-11-27T22:00:58.346Z,11.23
2022-11-27T22:03:30.582Z,13.90
2022-11-27T22:06:12.860Z,17.33
2022-11-27T22:08:49.409Z,15.57
2022-11-27T22:11:26.912Z,17.00
2022-11-27T22:14:03.234Z,14.23
2022-11-27T22:16:44.362Z,17.88
2022-11-27T22:19:18.019Z,12.40
2022-11-27T22:21:50.716Z,14.43
2022-11-27T22:24:22.698Z,19.23
2022-11-27T22:26:54.707Z,24.38
2022-11-27T22:29:26.944Z,17.67
2022-11-27T22:31:58.949Z,11.43
2022-11-27T22:34:31.227Z,18.00
2022-11-27T22:37:05.998Z,13.95
2022-11-27T22:39:38.130Z,14.68
2022-11-27T22:42:10.432Z,15.90
2022-11-27T22:44:42.734Z,15.57
2022-11-27T22:47:15.545Z,16.13
2022-11-27T22:49:47.601Z,12.57
2022-11-27T22:52:19.716Z,13.13
2022-11-27T22:54:51.742Z,10.85
2022-11-27T22:57:24.031Z,14.13
2022-11-27T22:59:56.376Z,16.00
2022-11-27T23:02:28.485Z,16.15
2022-11-27T23:05:00.536Z,15.40
2022-11-27T23:07:32.519Z,13.95
2022-11-27T23:10:05.077Z,15.90
2022-11-27T23:12:37.459Z,13.02
2022-11-27T23:15:10.104Z,20.02
2022-11-27T23:17:42.025Z,11.27
2022-11-27T23:20:14.248Z,12.27
2022-11-27T23:22:46.293Z,13.45
2022-11-27T23:25:18.494Z,16.83
2022-11-27T23:27:50.813Z,13.35
2022-11-27T23:30:22.925Z,14.73
2022-11-27T23:32:55.100Z,14.90
2022-11-27T23:35:27.404Z,11.63
2022-11-27T23:37:59.531Z,11.90
2022-11-27T23:40:31.569Z,21.60
2022-11-27T23:43:03.573Z,16.55
2022-11-27T23:45:38.529Z,15.07
2022-11-27T23:48:10.514Z,17.83
2022-11-27T23:50:43.433Z,17.92
2022-11-27T23:53:15.538Z,21.08
2022-11-27T23:55:47.778Z,21.88
2022-11-27T23:58:19.797Z,19.20
